AirNav   Air Wisconsin Up To $57,000 Bonus
 
 1470 users online  

KTNT Dade-Collier Training and Transition Airport
Miami, Florida, USA

GOING TO MIAMI?


FAA INFORMATION EFFECTIVE 15 JULY 2021

Location

FAA Identifier: TNT
Lat/Long: 25-51-42.5000N 080-53-49.2000W
25-51.708333N 080-53.820000W
25.8618056,-80.8970000
(estimated)
Elevation: 12.7 ft. / 3.9 m (surveyed)
Variation: 05W (2005)
From city: 36 miles W of MIAMI, FL
Time zone: UTC -4 (UTC -5 during Standard Time)
Zip code: 34141

Airport Operations

Airport use: Open to the public, ARPT CLSD TO PUBLIC EXCP BY ARRANGEMENT WITH MIAMI-DADE AVIATION DEPT MIAMI 305-869-1660.
Control tower: no
ARTCC: MIAMI CENTER
FSS: MIAMI FLIGHT SERVICE STATION
NOTAMs facility: MIA (NOTAM-D service available)
Attendance: 0830-1730
Wind indicator: lighted
Segmented circle: yes
Beacon: white-green (lighted land airport)
Operates sunset to sunrise.
Landing fee: yes

Airport Communications

CTAF/UNICOM: 123.0
WX AWOS-3: 119.075 (239-695-9198)
MIAMI APPROACH: 128.6
MIAMI DEPARTURE: 128.6
  • APCH/DEP SVC PRVDD BY MIAMI ATCT ON FREQS 128.6/306.975

Nearby radio navigation aids

VOR radial/distance  VOR name  Freq  Var
DHPr281/29.8DOLPHIN VORTAC113.9004W

Airport Services

Airframe service: NONE
Powerplant service: NONE
Bottled oxygen: NONE
Bulk oxygen: NONE

Runway Information

Runway 9/27

Dimensions: 10499 x 150 ft. / 3200 x 46 m
Surface: asphalt/porous friction courses, in good condition
Weight bearing capacity: 
PCN 65 /F/A/X/T
Single wheel: 130.0
Double wheel: 200.0
Double tandem: 400.0
Dual double tandem: 800.0
Runway edge lights: high intensity
RUNWAY 9  RUNWAY 27
Latitude: 25-51.708232N25-51.707022N
Longitude: 080-54.777252W080-52.861753W
Elevation: 12.6 ft.12.4 ft.
Traffic pattern: leftright
Runway heading: 095 magnetic, 090 true275 magnetic, 270 true
Markings: precision, in fair conditionprecision, in fair condition
Touchdown point: yes, no lightsyes, no lights
Instrument approach: ILS
Obstructions: none26 ft. trees, 1075 ft. from runway, 290 ft. right of centerline, 34:1 slope to clear

Airport Ownership and Management from official FAA records

Ownership: Publicly-owned
Owner: MIAMI-DADE COUNTY
MIAMI-DADE AVIATION DEPARTMENT, PO BOX 025504
MIAMI, FL 33102-5504
Phone (305) 876-0464
Manager: ELVIN HERNANDEZ
14201 NW LEJEUNE RD
OPA-LOCKA, FL 33054
Phone (305) 869-1662
AIRPORT PHYSICAL ADDRESS: 54757 EAST TAMIAMI TRAIL, OCHOPPI, FL 34141 239-695-3300, FAX: 305-876-0565

Airport Operational Statistics

Aircraft operations: avg 40/day *
100% transient general aviation
* for 12-month period ending 10 October 2018

Additional Remarks

A100 ACR TRNG OPNS ONLY.
THREE 8IN WELLS FLUSH MTD BTN RWY AND TWY.
FEE FOR USE FOR ACFT OVER 12500 LBS.
MAEW IN BUFFER ISLAND BTN RY 09/27 & TWY.
WILDLIFE OCCASIONALLY ON & INVOF ARPT.
BE ALERT TO LOW FLYING NATIONAL PARK SVC ACFT ALL QUADRANTS.
NO NGT TIME OPNS EXC WITH PRIOR PMSN FM MIAMI-DADE AVN DEPT 305-869-1660.
FOR CD IF UNA TO CTC ON FSS FREQ, CTC MIAMI APCH AT 305-869-5432.

Instrument Procedures

NOTE: All procedures below are presented as PDF files. If you need a reader for these files, you should download the free Adobe Reader.

NOT FOR NAVIGATION. Please procure official charts for flight.
FAA instrument procedures published for use from 15 July 2021 at 0901Z to 12 August 2021 at 0900z.

 
IAPs - Instrument Approach Procedures
RNAV (GPS) RWY 09   download (247KB)

Other nearby airports with instrument procedures:

KTMB - Miami Executive Airport (28 nm SE)
X51 - Miami Homestead General Aviation Airport (29 nm SE)
KMIA - Miami International Airport (33 nm E)
KOPF - Miami-Opa Locka Executive Airport (34 nm E)
KHST - Homestead Air Reserve Base (36 nm SE)
 
Loc | Ops | Rwys | IFR | FBO | Links
Com | Nav | Svcs | Stats | Notes


 
Area around KTNT (Dade-Collier Training and Transition Airport)
 
Road maps at: MapQuest Bing Google
 
Aerial photo
WARNING: Photo may not be current or correct
Aerial photo of KTNT (Dade-Collier Training and Transition Airport)
Do you have a better or more recent aerial photo of Dade-Collier Training and Transition Airport that you would like to share? If so, please send us your photo.

 
Sectional chart

 
Airport distance calculator
Flying to Dade-Collier Training and Transition Airport? Find the distance to fly.

From to KTNT

Sunrise and sunset
Times for 30-Jul-2021
 Local
(UTC-4)
 Zulu
(UTC)
Morning civil twilight06:2510:25
Sunrise06:5010:50
Sunset20:1000:10
Evening civil twilight20:3500:35

Current date and time
Zulu (UTC)  30-Jul-2021 18:32:29
Local (UTC-4)  30-Jul-2021 14:32:29
 
METAR
KTMB 
28nm SE 
301753Z 16007KT 10SM FEW042 BKN055 BKN075 33/22 A3007 RMK AO2 SLP180 T03330222 10339 20250 58007
KMIA 
32nm E 
301753Z VRB05KT 10SM SCT042 SCT055 SCT160 BKN250 33/24 A3007 RMK AO2 SLP182 CB DSNT W-NW MOV STNRY T03330244 10333 20267 58005
KOPF 
33nm E 
301753Z 15007KT 100V170 10SM SCT025 33/22 A3007 RMK AO2 SLP183 T03280217 10333 20261 58007
KHWO 
37nm E 
301753Z 24007KT 10SM BKN047 BKN055 32/21 A3008 RMK AO2 SLP185 T03220211 10333 20250 58007
KHST 
37nm SE 
301756Z AUTO 14008KT 10SM FEW036 FEW150 FEW170 33/24 A3007 RMK AO2 SLP186 T03260238 10326 20258 58005
KFLL 
42nm E 
301753Z 13009KT 10SM SCT038CB SCT050 BKN070 BKN250 32/24 A3005 RMK CB OHD MOV N VCSH NW
KMKY 
43nm W 
301256Z AUTO 03003KT 10SM CLR 28/24 A3007 RMK AO2 SLP184 T02780244 TSNO $
KFXE 
43nm NE 
301753Z 27008KT 10SM SCT039 SCT075 32/23 A3006 RMK AO2 SLP183 T03170233 10333 20250 58006
KIMM 
44nm NW 
301755Z AUTO 00000KT 10SM BKN042 34/23 A3005 RMK AO2 PWINO
KPMP 
48nm NE 
301753Z 12012KT 10SM CLR 32/24 A3007 RMK AO2 SLP182 T03220239 10328 20256 58007
TAF
KTMB 
28nm SE 
301744Z 3018/3118 15009KT P6SM VCTS SCT025CB BKN050 FM310100 VRB02KT P6SM FEW025 SCT050 FM311700 16008KT P6SM VCTS FEW035CB SCT150
KMIA 
32nm E 
301744Z 3018/3124 15010KT P6SM VCTS SCT025CB BKN050 FM310100 VRB03KT P6SM FEW025 SCT050 FM311700 16009KT P6SM VCTS FEW035CB SCT150
KOPF 
33nm E 
301744Z 3018/3118 15009KT P6SM VCTS SCT025CB BKN050 FM310100 VRB02KT P6SM FEW025 SCT050 FM311700 16008KT P6SM VCTS FEW035CB SCT150
NOTAMs
Click for the latest NOTAMs
NOTAMs are issued by the DoD/FAA and will open in a separate window not controlled by AirNav.

 

 
 

Would you like to see your business listed on this page?

 If your business provides an interesting product or service to pilots, flight crews, aircraft, or users of the Dade-Collier Training and Transition Airport, you should consider listing it here.  To start the listing process, click on the button below
 
Add a business
 

Other Pages about Dade-Collier Training and Transition Airport

Update a link
 
Copyright © AirNav, LLC. All rights reserved. Privacy Policy  Contact